Time;durP1;ratioP1;P1;durP2;ratioP2;P2;SDS_P1;SDS_P2;PMS_P1;PMS_P2;Temp;Humidity;BMP_temperature;BMP_pressure;BME280_temperature;BME280_humidity;BME280_pressure;Samples;Min_cycle;Max_cycle;Signal;HPM_P1;HPM_P2
2021/09/05 10:05:17;;;;;;;11.32;8.18;;;17.30;99.90;;;;;;5206188;23;20075;-73
2021/09/05 10:07:43;;;;;;;11.25;7.78;;;17.30;99.90;;;;;;4948622;28;20063;-71
2021/09/05 10:10:11;;;;;;;12.27;8.18;;;17.40;99.90;;;;;;4950442;28;20023;-74
2021/09/05 10:12:37;;;;;;;10.63;7.65;;;17.50;99.90;;;;;;4953052;28;20096;-70
2021/09/05 10:15:07;;;;;;;15.18;7.82;;;17.70;99.90;;;;;;4949383;28;20037;-71
2021/09/05 10:17:33;;;;;;;15.32;8.50;;;17.80;99.90;;;;;;4954987;29;20035;-75
2021/09/05 10:20:00;;;;;;;10.60;8.38;;;17.90;99.90;;;;;;4954978;28;20094;-73
2021/09/05 10:22:31;;;;;;;9.55;7.07;;;18.00;99.90;;;;;;4941176;28;20067;-74
2021/09/05 10:25:00;;;;;;;12.68;8.50;;;18.00;99.90;;;;;;4934836;29;20090;-72
2021/09/05 10:27:34;;;;;;;12.25;7.95;;;18.10;99.90;;;;;;4945476;29;20567;-73
2021/09/05 10:30:11;;;;;;;10.68;7.18;;;18.20;99.90;;;;;;4953840;29;20055;-78
2021/09/05 10:33:00;;;;;;;16.23;9.25;;;18.20;99.90;;;;;;4953777;29;20042;-77
2021/09/05 10:35:40;;;;;;;13.85;7.55;;;18.40;99.90;;;;;;4954072;29;20138;-75
2021/09/05 10:38:08;;;;;;;10.10;7.68;;;18.40;99.90;;;;;;4954495;28;20110;-77
2021/09/05 10:40:44;;;;;;;11.10;6.75;;;18.50;99.90;;;;;;4954632;28;20027;-75
2021/09/05 10:43:10;;;;;;;11.98;7.63;;;18.60;99.90;;;;;;4953145;29;20039;-77
2021/09/05 10:45:37;;;;;;;13.30;7.63;;;18.70;99.90;;;;;;4949658;28;20038;-76
2021/09/05 10:48:29;;;;;;;12.73;8.52;;;18.70;99.90;;;;;;4934523;29;20138;-75
2021/09/05 10:51:05;;;;;;;14.30;8.10;;;18.70;99.90;;;;;;4934824;29;20392;-76
2021/09/05 10:53:36;;;;;;;10.20;7.63;;;18.80;99.90;;;;;;4934360;29;20034;-75
2021/09/05 10:56:13;;;;;;;11.43;8.20;;;18.80;99.90;;;;;;4949989;29;20030;-80
2021/09/05 10:58:45;;;;;;;13.18;8.23;;;19.00;99.90;;;;;;4938850;29;20032;-79
2021/09/05 11:01:29;;;;;;;10.75;8.25;;;19.00;99.90;;;;;;4934680;29;20075;-83
2021/09/05 11:04:10;;;;;;;10.00;7.82;;;19.00;99.90;;;;;;4936175;29;20484;-78
2021/09/05 11:06:42;;;;;;;13.30;8.18;;;19.00;99.90;;;;;;4935754;29;20060;-81
2021/09/05 11:09:34;;;;;;;12.40;8.13;;;19.10;99.90;;;;;;4933868;29;20095;-83
2021/09/05 11:12:11;;;;;;;9.55;6.70;;;19.10;99.90;;;;;;4930169;29;20043;-81
2021/09/05 11:17:08;;;;;;;7.97;6.53;;;19.30;99.90;;;;;;4941883;28;20039;-80
2021/09/05 11:19:58;;;;;;;9.02;6.07;;;19.40;99.90;;;;;;4934463;29;20062;-77
2021/09/05 11:22:44;;;;;;;11.70;6.88;;;19.40;99.90;;;;;;4919454;29;20031;-74
2021/09/05 11:25:12;;;;;;;8.07;6.50;;;19.50;99.90;;;;;;4933695;29;20484;-75
2021/09/05 11:27:41;;;;;;;10.07;6.63;;;19.50;99.90;;;;;;4935427;29;20114;-73
2021/09/05 11:30:11;;;;;;;10.32;7.80;;;19.60;99.90;;;;;;4951541;28;20035;-76
2021/09/05 11:32:39;;;;;;;9.85;7.32;;;19.70;99.90;;;;;;4948995;29;20031;-73
2021/09/05 11:35:05;;;;;;;7.35;5.90;;;19.70;99.90;;;;;;4933043;29;20107;-74
2021/09/05 11:37:33;;;;;;;7.15;5.82;;;19.80;99.90;;;;;;4934106;29;20054;-74
2021/09/05 11:40:09;;;;;;;7.85;6.45;;;19.90;99.90;;;;;;4933549;29;20054;-79
2021/09/05 11:42:36;;;;;;;10.77;7.28;;;19.90;99.90;;;;;;4933631;29;20130;-75
2021/09/05 11:45:06;;;;;;;10.95;6.57;;;19.90;99.90;;;;;;4932859;29;20027;-78
2021/09/05 11:47:32;;;;;;;8.48;6.15;;;20.00;99.90;;;;;;4934703;29;20024;-78
2021/09/05 11:49:59;;;;;;;9.93;7.38;;;20.00;99.90;;;;;;4932523;29;20028;-76
2021/09/05 11:52:27;;;;;;;7.53;6.15;;;20.10;99.90;;;;;;4940288;29;20492;-73
2021/09/05 11:55:07;;;;;;;9.95;7.20;;;20.10;99.90;;;;;;4953808;28;20051;-74
2021/09/05 11:57:35;;;;;;;8.60;6.32;;;20.10;99.90;;;;;;4952509;28;20023;-76
2021/09/05 12:00:07;;;;;;;8.25;6.75;;;20.20;99.90;;;;;;4934634;29;20251;-73
2021/09/05 12:02:37;;;;;;;9.00;6.78;;;20.20;99.90;;;;;;4947814;29;20121;-81
2021/09/05 12:05:05;;;;;;;9.50;6.93;;;20.30;99.90;;;;;;4934089;29;20055;-78
2021/09/05 12:07:36;;;;;;;9.82;6.68;;;20.50;99.90;;;;;;4941001;29;20097;-80
2021/09/05 12:10:17;;;;;;;7.15;6.18;;;20.50;99.90;;;;;;4952238;29;20031;-77
2021/09/05 12:12:43;;;;;;;9.40;6.88;;;20.60;99.90;;;;;;4935782;29;20051;-79
2021/09/05 12:15:13;;;;;;;13.43;7.22;;;20.70;99.90;;;;;;4933826;29;20028;-84
2021/09/05 12:17:48;;;;;;;7.72;6.30;;;20.70;99.90;;;;;;4935410;29;20498;-79
2021/09/05 12:20:15;;;;;;;9.27;6.78;;;20.70;99.90;;;;;;4933674;29;20419;-81
2021/09/05 12:22:41;;;;;;;10.45;6.78;;;20.80;99.90;;;;;;4933446;29;20063;-79
2021/09/05 12:25:12;;;;;;;7.07;6.00;;;20.80;99.90;;;;;;4934412;29;20153;-86
2021/09/05 12:27:38;;;;;;;;;;;20.90;99.90;;;;;;4950296;29;20105;-81
2021/09/05 12:30:58;;;;;;;7.95;5.95;;;20.90;99.90;;;;;;4935251;29;19946;-83
2021/09/05 12:33:29;;;;;;;7.07;6.10;;;21.00;99.90;;;;;;4846598;29;20040;-89
2021/09/05 12:36:04;;;;;;;10.38;6.75;;;21.00;99.90;;;;;;4860620;29;20040;-79
2021/09/05 12:38:32;;;;;;;9.55;6.85;;;21.00;99.90;;;;;;4906903;29;20032;-81
2021/09/05 12:41:12;;;;;;;9.20;6.95;;;21.10;99.90;;;;;;4937087;29;20402;-80
2021/09/05 12:43:57;;;;;;;9.43;7.28;;;21.20;99.90;;;;;;4938584;29;20028;-81
2021/09/05 12:46:38;;;;;;;8.82;7.55;;;21.20;99.80;;;;;;4940822;29;20075;-84
2021/09/05 12:49:22;;;;;;;8.77;7.07;;;21.30;99.60;;;;;;4944865;29;20043;-80
2021/09/05 12:51:57;;;;;;;7.63;6.72;;;21.30;99.30;;;;;;4936840;29;20279;-82
2021/09/05 12:54:25;;;;;;;9.10;6.85;;;21.30;98.60;;;;;;4936602;29;20037;-80
2021/09/05 12:56:52;;;;;;;9.50;7.00;;;21.40;99.00;;;;;;4946645;29;20023;-89
2021/09/05 12:59:19;;;;;;;8.45;6.65;;;21.40;98.80;;;;;;4937318;29;20024;-80
2021/09/05 13:01:49;;;;;;;9.50;6.80;;;21.40;98.60;;;;;;4937146;29;20019;-79
2021/09/05 13:04:15;;;;;;;8.65;6.55;;;21.50;99.10;;;;;;4949648;29;20102;-86
2021/09/05 13:06:40;;;;;;;8.07;6.90;;;21.50;99.00;;;;;;4941812;29;20511;-80
2021/09/05 13:09:06;;;;;;;8.10;5.90;;;21.60;99.40;;;;;;4943301;29;20034;-90
2021/09/05 13:11:32;;;;;;;8.35;6.97;;;21.60;99.50;;;;;;4955661;29;20024;-83
2021/09/05 13:13:59;;;;;;;7.72;6.57;;;21.60;99.80;;;;;;4955046;29;20033;-82
2021/09/05 13:16:25;;;;;;;7.78;6.53;;;21.70;99.70;;;;;;4956256;28;20027;-81
2021/09/05 13:18:51;;;;;;;7.93;7.07;;;21.70;99.70;;;;;;4952113;28;20110;-78
2021/09/05 13:21:18;;;;;;;8.32;7.22;;;21.70;99.70;;;;;;4953854;29;20050;-80
2021/09/05 13:23:48;;;;;;;8.30;6.82;;;21.70;99.50;;;;;;4954978;29;20036;-83
2021/09/05 13:26:16;;;;;;;10.13;7.28;;;21.80;98.60;;;;;;4955317;29;20034;-80
2021/09/05 13:28:42;;;;;;;8.07;6.78;;;21.80;98.90;;;;;;4955062;29;20027;-86
2021/09/05 13:31:12;;;;;;;9.02;7.55;;;21.80;99.10;;;;;;4956650;28;20494;-92
2021/09/05 13:33:38;;;;;;;8.55;7.07;;;21.80;99.50;;;;;;4956098;29;20034;-88
2021/09/05 13:36:04;;;;;;;8.70;7.18;;;21.90;99.40;;;;;;4953103;29;20027;-81
2021/09/05 13:38:31;;;;;;;9.68;7.50;;;22.00;99.50;;;;;;4955424;29;20502;-83
2021/09/05 13:40:57;;;;;;;9.13;6.85;;;21.90;99.40;;;;;;4950238;28;20456;-79
2021/09/05 13:43:23;;;;;;;7.85;6.57;;;22.00;99.70;;;;;;4935000;29;20161;-82
2021/09/05 13:45:49;;;;;;;9.65;7.13;;;22.10;99.80;;;;;;4936838;29;20020;-84
2021/09/05 13:48:15;;;;;;;8.05;6.57;;;22.00;99.60;;;;;;4950944;29;20039;-89
2021/09/05 13:50:42;;;;;;;7.25;6.55;;;22.10;99.50;;;;;;4936101;29;20035;-84
2021/09/05 13:53:07;;;;;;;8.48;6.63;;;22.10;99.50;;;;;;4935900;29;20036;-84
2021/09/05 13:55:36;;;;;;;7.95;7.15;;;22.10;99.60;;;;;;4938436;29;20024;-88
2021/09/05 13:58:02;;;;;;;8.75;7.00;;;22.10;99.60;;;;;;4937546;29;20032;-82
2021/09/05 14:00:27;;;;;;;9.18;7.10;;;22.10;99.00;;;;;;4937362;29;20494;-88
2021/09/05 14:02:53;;;;;;;8.10;6.50;;;22.10;99.20;;;;;;4938373;29;20093;-82
2021/09/05 14:05:21;;;;;;;8.82;6.30;;;22.10;99.50;;;;;;4948466;29;20043;-88
2021/09/05 14:07:46;;;;;;;8.60;6.95;;;22.20;99.70;;;;;;4937722;29;20024;-82
2021/09/05 14:10:12;;;;;;;8.63;7.07;;;22.20;99.60;;;;;;4951457;29;20027;-87
2021/09/05 14:12:38;;;;;;;12.68;7.80;;;22.20;98.80;;;;;;4942754;28;20036;-87
2021/09/05 14:15:10;;;;;;;8.63;7.32;;;22.30;98.60;;;;;;4973549;28;20027;-89
2021/09/05 14:17:39;;;;;;;8.45;7.35;;;22.30;98.20;;;;;;4974664;28;20030;-82
2021/09/05 14:20:05;;;;;;;8.85;7.03;;;22.40;98.30;;;;;;4974186;28;20120;-90
2021/09/05 14:22:31;;;;;;;8.90;7.22;;;22.30;98.60;;;;;;4973807;28;20117;-87
2021/09/05 14:24:58;;;;;;;8.75;7.13;;;22.30;98.50;;;;;;4969531;28;20106;-92
2021/09/05 14:27:32;;;;;;;8.65;7.72;;;22.40;98.10;;;;;;4954337;29;20027;-95
2021/09/05 14:30:04;;;;;;;7.55;6.78;;;22.40;97.80;;;;;;4947571;28;20039;-84
2021/09/05 14:35:26;;;;;;;8.15;6.78;;;22.40;97.90;;;;;;4940594;29;20451;-89
2021/09/05 14:48:17;;;;;;;8.25;7.05;;;22.50;98.30;;;;;;4954965;29;20550;-75
2021/09/05 14:56:11;;;;;;;7.75;6.90;;;22.60;98.60;;;;;;4951254;28;20097;-81
2021/09/05 14:58:40;;;;;;;10.43;8.50;;;22.60;98.10;;;;;;4946181;28;20027;-81
2021/09/05 15:01:12;;;;;;;10.48;7.60;;;22.60;97.30;;;;;;4933663;29;20043;-83
2021/09/05 15:03:47;;;;;;;10.38;8.50;;;22.60;97.50;;;;;;4944435;29;20106;-78
2021/09/05 15:06:37;;;;;;;9.45;7.35;;;22.60;97.20;;;;;;4953582;29;20052;-76
2021/09/05 15:11:43;;;;;;;9.30;7.55;;;22.60;97.20;;;;;;4954772;29;20094;-72
2021/09/05 15:14:08;;;;;;;8.00;7.20;;;22.60;96.70;;;;;;4947433;29;20424;-75
2021/09/05 15:16:35;;;;;;;8.40;6.95;;;22.60;97.00;;;;;;4935488;29;20051;-71
2021/09/05 15:19:01;;;;;;;8.38;7.13;;;22.60;97.60;;;;;;4934923;29;20035;-73
2021/09/05 15:21:33;;;;;;;9.82;7.55;;;22.60;97.30;;;;;;4945428;29;20087;-74
2021/09/05 15:23:58;;;;;;;7.38;6.28;;;22.60;97.50;;;;;;4953122;28;20472;-73
2021/09/05 15:26:28;;;;;;;7.53;6.32;;;22.60;98.00;;;;;;4933852;29;20031;-73
2021/09/05 15:36:23;;;;;;;13.05;11.02;;;22.50;96.70;;;;;;4934362;29;20062;-77
2021/09/05 15:54:50;;;;;;;10.85;8.88;;;22.40;95.90;;;;;;4946450;29;20036;-74
2021/09/05 15:57:16;;;;;;;9.48;8.43;;;22.40;95.80;;;;;;4942030;29;20046;-82
2021/09/05 15:59:52;;;;;;;10.43;8.45;;;22.40;96.10;;;;;;4952641;29;20032;-79
2021/09/05 16:02:24;;;;;;;12.05;8.65;;;22.40;96.50;;;;;;4953585;28;20026;-78
2021/09/05 16:05:05;;;;;;;9.55;8.13;;;22.40;96.30;;;;;;4950127;28;20053;-80
2021/09/05 16:18:23;;;;;;;8.85;7.80;;;22.20;97.10;;;;;;4953666;29;20070;-79
2021/09/05 16:20:49;;;;;;;7.47;6.75;;;22.10;97.20;;;;;;4952099;29;20047;-79
2021/09/05 16:23:15;;;;;;;9.15;7.93;;;22.10;97.50;;;;;;4952470;29;20027;-78
2021/09/05 16:25:40;;;;;;;11.45;8.30;;;22.00;97.90;;;;;;4951733;29;20118;-79
2021/09/05 16:28:07;;;;;;;9.63;8.38;;;22.00;97.90;;;;;;4950575;29;20036;-79
2021/09/05 16:30:37;;;;;;;9.63;8.20;;;21.90;97.30;;;;;;4952570;29;20011;-78
2021/09/05 16:35:54;;;;;;;;;;;21.90;97.00;;;;;;4935339;29;20055;-79
2021/09/05 16:41:04;;;;;;;10.95;8.43;;;21.70;97.90;;;;;;4935726;28;20078;-78
2021/09/05 16:43:30;;;;;;;14.00;11.80;;;21.70;97.50;;;;;;4952637;29;20058;-77
2021/09/05 16:45:57;;;;;;;14.70;11.20;;;21.80;98.40;;;;;;4947634;28;20019;-76
2021/09/05 16:48:22;;;;;;;10.50;9.40;;;21.80;98.90;;;;;;4933032;29;20039;-75
2021/09/05 16:50:49;;;;;;;8.48;7.47;;;21.80;98.90;;;;;;4947947;29;20060;-75
2021/09/05 16:53:15;;;;;;;10.18;8.02;;;21.80;99.10;;;;;;4951261;29;20024;-76
2021/09/05 16:55:41;;;;;;;10.45;8.57;;;21.80;98.90;;;;;;4951711;29;20036;-75
2021/09/05 16:58:06;;;;;;;11.60;9.23;;;21.80;99.00;;;;;;4951822;29;20494;-76
2021/09/05 17:00:32;;;;;;;11.73;8.70;;;21.70;98.70;;;;;;4952888;28;20024;-77
2021/09/05 17:02:57;;;;;;;9.93;8.70;;;21.70;99.00;;;;;;4949188;28;20024;-77
2021/09/05 17:05:23;;;;;;;11.93;8.68;;;21.70;99.00;;;;;;4933437;29;20044;-76
2021/09/05 17:07:48;;;;;;;14.20;9.98;;;21.50;99.00;;;;;;4931386;29;20499;-76
2021/09/05 17:10:15;;;;;;;11.38;9.43;;;21.50;99.20;;;;;;4934135;29;20421;-78
2021/09/05 17:12:41;;;;;;;14.45;10.05;;;21.50;98.80;;;;;;4934118;29;20063;-74
2021/09/05 17:15:07;;;;;;;14.93;9.50;;;21.40;99.10;;;;;;4941191;29;20035;-74
2021/09/05 17:17:33;;;;;;;12.35;9.48;;;21.20;99.90;;;;;;4937101;29;20452;-74
2021/09/05 17:19:59;;;;;;;12.43;9.05;;;21.10;99.90;;;;;;4943551;29;20031;-74
2021/09/05 17:22:24;;;;;;;10.13;8.55;;;20.90;99.90;;;;;;4954680;29;20365;-77
2021/09/05 17:24:50;;;;;;;11.77;9.32;;;20.70;99.90;;;;;;4953147;29;20436;-76
2021/09/05 17:27:16;;;;;;;11.27;9.23;;;20.50;99.90;;;;;;4956030;28;20035;-75
2021/09/05 17:29:43;;;;;;;10.45;9.35;;;20.40;99.90;;;;;;4954024;29;20023;-73
2021/09/05 17:32:08;;;;;;;11.02;9.63;;;20.20;99.90;;;;;;4956206;28;20020;-75
2021/09/05 17:34:35;;;;;;;10.93;9.57;;;20.10;99.90;;;;;;4955617;28;20541;-74
2021/09/05 17:37:02;;;;;;;12.20;9.13;;;20.00;99.90;;;;;;4953976;28;20439;-72
2021/09/05 17:39:28;;;;;;;11.73;9.57;;;19.80;99.90;;;;;;4956560;28;20451;-73
2021/09/05 17:41:54;;;;;;;11.10;9.73;;;19.70;99.90;;;;;;4954803;28;20063;-74
2021/09/05 17:44:20;;;;;;;12.80;9.35;;;19.60;99.90;;;;;;4956077;28;20404;-73
2021/09/05 17:46:46;;;;;;;11.60;9.73;;;19.40;99.90;;;;;;4955577;28;20034;-73
2021/09/05 17:49:12;;;;;;;10.98;9.80;;;19.30;99.90;;;;;;4953809;28;20488;-75
2021/09/05 17:51:38;;;;;;;11.05;9.57;;;19.20;99.90;;;;;;4954651;29;20244;-72
2021/09/05 17:54:04;;;;;;;10.18;8.90;;;19.10;99.90;;;;;;4955735;28;20439;-72
2021/09/05 17:56:30;;;;;;;11.05;9.70;;;19.00;99.90;;;;;;4954736;28;20023;-72
2021/09/05 17:58:55;;;;;;;10.77;9.68;;;18.80;99.90;;;;;;4953948;28;20090;-71
2021/09/05 18:01:21;;;;;;;11.48;9.40;;;18.70;99.90;;;;;;4955942;28;20027;-72
2021/09/05 18:03:47;;;;;;;55.10;11.57;;;18.60;99.90;;;;;;4944228;28;20067;-71
2021/09/05 18:06:12;;;;;;;16.10;10.25;;;18.50;99.90;;;;;;4935137;29;20050;-72
2021/09/05 18:08:38;;;;;;;10.90;9.48;;;18.50;99.90;;;;;;4935581;29;20071;-74
2021/09/05 18:11:03;;;;;;;12.65;9.50;;;18.50;99.90;;;;;;4945792;29;20031;-74
2021/09/05 18:13:30;;;;;;;13.48;10.60;;;18.40;99.90;;;;;;4959236;28;20027;-71
2021/09/05 18:15:55;;;;;;;15.02;10.98;;;18.40;99.90;;;;;;4970694;28;20023;-73
2021/09/05 18:18:21;;;;;;;12.65;9.30;;;18.40;99.90;;;;;;4957171;28;20047;-73
2021/09/05 18:20:47;;;;;;;11.25;9.40;;;18.40;99.90;;;;;;4932666;29;20028;-74
2021/09/05 18:23:13;;;;;;;11.35;9.73;;;18.30;99.90;;;;;;4938453;29;20203;-74
2021/09/05 18:25:41;;;;;;;14.13;9.70;;;18.20;99.90;;;;;;4950381;29;20782;-74
2021/09/05 18:28:07;;;;;;;11.18;9.13;;;18.10;99.90;;;;;;4950957;28;20074;-73
2021/09/05 18:30:34;;;;;;;12.40;10.13;;;17.90;99.90;;;;;;4950482;28;20063;-72
2021/09/05 18:33:02;;;;;;;12.68;10.20;;;17.80;99.90;;;;;;4934408;29;20027;-75
2021/09/05 18:35:29;;;;;;;10.95;9.45;;;17.70;99.90;;;;;;4939457;29;20554;-77
2021/09/05 18:37:55;;;;;;;13.65;10.43;;;17.70;99.90;;;;;;4915531;29;20023;-76
2021/09/05 18:40:21;;;;;;;16.55;10.52;;;17.70;99.90;;;;;;4935540;29;20027;-76
2021/09/05 18:42:47;;;;;;;12.23;10.30;;;17.70;99.90;;;;;;4938404;29;20361;-76
2021/09/05 18:45:13;;;;;;;14.07;10.20;;;17.70;99.90;;;;;;4945739;28;20034;-75
2021/09/05 18:47:39;;;;;;;14.07;10.25;;;17.70;99.90;;;;;;4946268;29;20043;-74
2021/09/05 18:50:05;;;;;;;11.52;9.85;;;17.70;99.90;;;;;;4941254;29;20063;-77
2021/09/05 18:52:31;;;;;;;12.23;10.27;;;17.70;99.90;;;;;;4938060;29;20041;-78
2021/09/05 18:54:56;;;;;;;12.00;10.20;;;17.60;99.90;;;;;;4944194;29;20027;-74
2021/09/05 18:57:22;;;;;;;11.65;10.15;;;17.50;99.90;;;;;;4931665;29;20051;-74
2021/09/05 18:59:48;;;;;;;11.50;10.27;;;17.50;99.90;;;;;;4940956;29;20066;-73
2021/09/05 19:02:13;;;;;;;13.57;10.85;;;17.40;99.90;;;;;;4943124;29;20035;-73
2021/09/05 19:04:39;;;;;;;13.70;10.65;;;17.40;99.90;;;;;;4934541;28;20052;-74
2021/09/05 19:07:05;;;;;;;12.38;9.93;;;17.30;99.90;;;;;;4929588;29;20035;-74
2021/09/05 19:09:30;;;;;;;11.27;9.13;;;17.20;99.90;;;;;;4945404;29;20039;-74
2021/09/05 19:11:56;;;;;;;12.13;9.90;;;17.20;99.90;;;;;;4949127;29;20038;-78
2021/09/05 19:14:21;;;;;;;14.48;10.90;;;17.20;99.90;;;;;;4943486;29;20036;-76
2021/09/05 19:16:47;;;;;;;11.63;9.73;;;17.10;99.90;;;;;;4935326;29;20114;-74
2021/09/05 19:19:13;;;;;;;11.82;10.48;;;17.10;99.90;;;;;;4939909;29;20691;-72
2021/09/05 19:21:39;;;;;;;13.80;11.10;;;17.10;99.90;;;;;;4938759;29;20019;-73
2021/09/05 19:24:04;;;;;;;10.98;9.85;;;17.00;99.90;;;;;;4940013;29;20057;-73
2021/09/05 19:26:31;;;;;;;10.68;9.57;;;17.00;99.90;;;;;;4948808;28;20023;-74
2021/09/05 19:28:56;;;;;;;14.80;10.88;;;17.00;99.90;;;;;;4941866;29;20043;-74
2021/09/05 19:31:23;;;;;;;11.70;9.73;;;17.00;99.90;;;;;;4948196;29;20030;-74
2021/09/05 19:33:48;;;;;;;11.55;9.57;;;17.00;99.90;;;;;;4931949;29;20027;-74
2021/09/05 19:36:17;;;;;;;11.70;10.07;;;16.90;99.90;;;;;;4932077;29;20034;-73
2021/09/05 19:38:43;;;;;;;14.35;10.38;;;16.80;99.90;;;;;;4932493;29;20032;-74
2021/09/05 19:41:08;;;;;;;12.23;9.25;;;16.70;99.90;;;;;;4930106;29;20149;-73
2021/09/05 19:43:34;;;;;;;10.73;9.63;;;16.60;99.90;;;;;;4932525;29;20090;-72
2021/09/05 19:45:59;;;;;;;10.88;9.48;;;16.50;99.90;;;;;;4931341;28;20019;-74
2021/09/05 19:48:25;;;;;;;16.65;9.88;;;16.50;99.90;;;;;;4931172;29;20176;-73
2021/09/05 19:50:50;;;;;;;12.07;10.75;;;16.40;99.90;;;;;;4932369;28;20080;-74
2021/09/05 19:53:16;;;;;;;12.63;10.02;;;16.40;99.90;;;;;;4949904;29;20039;-74
2021/09/05 19:55:42;;;;;;;13.48;10.55;;;16.30;99.90;;;;;;4948138;28;20492;-73
2021/09/05 19:58:07;;;;;;;12.55;10.68;;;16.20;99.90;;;;;;4943609;29;20027;-73
2021/09/05 20:00:33;;;;;;;14.20;11.05;;;16.10;99.90;;;;;;4944495;29;20019;-75
2021/09/05 20:02:58;;;;;;;13.45;10.65;;;16.00;99.90;;;;;;4936244;29;20028;-74
2021/09/05 20:05:24;;;;;;;14.07;11.65;;;16.00;99.90;;;;;;4934805;29;20912;-74
2021/09/05 20:07:50;;;;;;;16.50;12.48;;;15.90;99.90;;;;;;4948791;29;20125;-73
2021/09/05 20:10:15;;;;;;;15.98;12.68;;;15.80;99.90;;;;;;4951117;29;20075;-73
2021/09/05 20:12:42;;;;;;;17.98;12.70;;;15.70;99.90;;;;;;4941663;29;20552;-73
2021/09/05 20:15:08;;;;;;;18.05;12.35;;;15.70;99.90;;;;;;4952688;29;20031;-74
2021/09/05 20:17:35;;;;;;;15.57;12.27;;;15.60;99.90;;;;;;4948516;28;20024;-73
2021/09/05 20:20:01;;;;;;;14.88;12.05;;;15.50;99.90;;;;;;4938904;28;20046;-73
2021/09/05 20:22:26;;;;;;;13.75;11.75;;;15.50;99.90;;;;;;4941269;29;20019;-73
2021/09/05 20:24:52;;;;;;;17.02;11.95;;;15.40;99.90;;;;;;4951773;29;20028;-73
2021/09/05 20:27:17;;;;;;;18.13;13.00;;;15.30;99.90;;;;;;4942872;28;20020;-73
2021/09/05 20:29:43;;;;;;;15.95;12.27;;;15.20;99.90;;;;;;4934614;29;20051;-73
2021/09/05 20:32:08;;;;;;;16.92;13.55;;;15.20;99.90;;;;;;4937137;29;20019;-73
2021/09/05 20:34:34;;;;;;;14.57;12.60;;;15.20;99.90;;;;;;4942479;29;20040;-73
2021/09/05 20:37:00;;;;;;;15.80;12.95;;;15.10;99.90;;;;;;4933116;29;20035;-75
2021/09/05 20:39:25;;;;;;;15.25;11.95;;;15.00;99.90;;;;;;4932681;29;20055;-78
2021/09/05 20:41:51;;;;;;;15.32;11.85;;;15.00;99.90;;;;;;4934461;29;20032;-76
2021/09/05 20:44:17;;;;;;;14.75;11.80;;;15.00;99.90;;;;;;4934281;29;20024;-73
2021/09/05 20:46:42;;;;;;;15.10;11.65;;;14.90;99.90;;;;;;4933937;29;20472;-74
2021/09/05 20:49:08;;;;;;;12.15;10.52;;;14.90;99.90;;;;;;4933083;29;20074;-74
2021/09/05 20:51:38;;;;;;;13.98;10.95;;;14.80;99.90;;;;;;4935073;29;20015;-77
2021/09/05 20:54:04;;;;;;;14.77;12.13;;;14.80;99.90;;;;;;4936781;29;20027;-74
2021/09/05 20:56:30;;;;;;;15.93;11.88;;;14.70;99.90;;;;;;4938230;29;20027;-77
2021/09/05 20:58:55;;;;;;;14.52;12.23;;;14.70;99.90;;;;;;4937262;29;20031;-73
2021/09/05 21:01:21;;;;;;;14.15;11.50;;;14.70;99.90;;;;;;4937268;29;20103;-76
2021/09/05 21:03:46;;;;;;;14.95;11.82;;;14.60;99.90;;;;;;4936657;29;20030;-76
2021/09/05 21:06:13;;;;;;;15.05;12.50;;;14.60;99.90;;;;;;4935842;29;20055;-77
2021/09/05 21:08:39;;;;;;;16.60;12.90;;;14.60;99.90;;;;;;4938102;29;20023;-77
2021/09/05 21:11:04;;;;;;;19.33;13.57;;;14.50;99.90;;;;;;4936495;29;20024;-74
2021/09/05 21:13:30;;;;;;;15.90;12.93;;;14.50;99.90;;;;;;4937413;29;20231;-74
2021/09/05 21:15:56;;;;;;;14.77;12.05;;;14.40;99.90;;;;;;4937396;29;20038;-78
2021/09/05 21:18:22;;;;;;;17.77;13.07;;;14.40;99.90;;;;;;4937743;29;20024;-75
2021/09/05 21:20:47;;;;;;;14.05;11.20;;;14.30;99.90;;;;;;4935494;29;20027;-77
2021/09/05 21:23:13;;;;;;;16.08;12.30;;;14.30;99.90;;;;;;4937745;29;20892;-75
2021/09/05 21:25:38;;;;;;;13.57;11.85;;;14.30;99.90;;;;;;4937799;29;20024;-77
2021/09/05 21:28:04;;;;;;;15.70;12.95;;;14.30;99.90;;;;;;4936713;29;20474;-73
2021/09/05 21:30:31;;;;;;;17.60;13.57;;;14.20;99.90;;;;;;4936490;29;20031;-75
2021/09/05 21:32:57;;;;;;;16.50;14.60;;;14.20;99.90;;;;;;4935856;29;20090;-74
2021/09/05 21:35:23;;;;;;;19.65;14.50;;;14.10;99.90;;;;;;4936739;29;20075;-75
2021/09/05 21:37:49;;;;;;;16.33;13.63;;;14.10;99.90;;;;;;4937476;29;20110;-73
2021/09/05 21:40:15;;;;;;;17.27;13.52;;;14.10;99.90;;;;;;4937339;29;20028;-76
2021/09/05 21:42:42;;;;;;;13.70;11.60;;;14.00;99.90;;;;;;4935264;29;20038;-73
2021/09/05 21:45:08;;;;;;;15.55;12.93;;;14.00;99.90;;;;;;4935721;29;20031;-74
2021/09/05 21:47:33;;;;;;;15.02;12.40;;;14.00;99.90;;;;;;4936067;29;20045;-74
2021/09/05 21:49:59;;;;;;;13.57;11.65;;;14.00;99.90;;;;;;4936192;29;20035;-76
2021/09/05 21:52:24;;;;;;;15.45;12.43;;;14.00;99.90;;;;;;4937443;29;20028;-75
2021/09/05 21:54:50;;;;;;;15.18;12.65;;;13.90;99.90;;;;;;4936328;29;20058;-74
2021/09/05 21:57:16;;;;;;;13.93;11.90;;;13.90;99.90;;;;;;4935775;29;20421;-73
2021/09/05 21:59:42;;;;;;;14.13;11.90;;;13.90;99.90;;;;;;4937023;29;20055;-73
2021/09/05 22:02:07;;;;;;;14.68;12.75;;;13.90;99.90;;;;;;4934922;29;20472;-73
2021/09/05 22:04:33;;;;;;;13.43;11.75;;;14.00;99.90;;;;;;4936832;29;20040;-74
2021/09/05 22:06:59;;;;;;;14.15;11.43;;;14.00;99.90;;;;;;4936407;29;20456;-73
2021/09/05 22:09:24;;;;;;;14.57;11.60;;;13.90;99.90;;;;;;4935044;29;20043;-73
2021/09/05 22:11:50;;;;;;;15.38;12.40;;;13.90;99.90;;;;;;4935295;29;20024;-73
2021/09/05 22:14:15;;;;;;;14.23;11.75;;;13.90;99.90;;;;;;4940137;29;20476;-73
2021/09/05 22:16:41;;;;;;;14.43;12.00;;;13.90;99.90;;;;;;4944824;28;20066;-73
2021/09/05 22:19:06;;;;;;;13.15;11.73;;;13.80;99.90;;;;;;4935326;29;20027;-73
2021/09/05 22:21:32;;;;;;;13.40;11.98;;;13.80;99.90;;;;;;4953121;29;20487;-73
2021/09/05 22:23:57;;;;;;;14.23;12.57;;;13.80;99.90;;;;;;4954910;28;20476;-74
2021/09/05 22:26:23;;;;;;;14.45;12.45;;;13.80;99.90;;;;;;4955650;28;20031;-73
2021/09/05 22:28:49;;;;;;;17.13;12.68;;;13.80;99.90;;;;;;4954300;28;20040;-73
2021/09/05 22:31:15;;;;;;;14.52;12.68;;;13.70;99.90;;;;;;4954892;28;20027;-74
2021/09/05 22:33:40;;;;;;;15.65;13.93;;;13.70;99.90;;;;;;4955660;29;20065;-73
2021/09/05 22:36:06;;;;;;;15.73;13.27;;;13.70;99.90;;;;;;4954097;29;20051;-74
2021/09/05 22:38:32;;;;;;;15.18;12.93;;;13.60;99.90;;;;;;4954034;29;20039;-73
2021/09/05 22:40:58;;;;;;;22.83;12.77;;;13.60;99.90;;;;;;4954965;28;20385;-73
2021/09/05 22:43:24;;;;;;;15.32;12.98;;;13.60;99.90;;;;;;4954163;29;20023;-73
2021/09/05 22:45:51;;;;;;;15.77;12.93;;;13.60;99.90;;;;;;4953087;29;20090;-73
2021/09/05 22:48:17;;;;;;;15.10;13.10;;;13.50;99.90;;;;;;4955109;28;20489;-73
2021/09/05 22:50:43;;;;;;;14.48;11.65;;;13.50;99.90;;;;;;4955148;28;20046;-75
2021/09/05 22:53:08;;;;;;;15.52;13.07;;;13.50;99.90;;;;;;4953072;29;20476;-75
2021/09/05 22:55:34;;;;;;;15.63;12.98;;;13.50;99.90;;;;;;4954955;28;20034;-77
2021/09/05 22:57:59;;;;;;;17.02;13.15;;;13.50;99.90;;;;;;4954817;28;20063;-73
2021/09/05 23:00:25;;;;;;;19.38;13.57;;;13.40;99.90;;;;;;4954517;28;20027;-73
2021/09/05 23:02:51;;;;;;;17.55;12.80;;;13.40;99.90;;;;;;4954519;28;20035;-73
2021/09/05 23:05:16;;;;;;;15.43;13.27;;;13.40;99.90;;;;;;4952771;29;20055;-75
2021/09/05 23:07:42;;;;;;;13.98;12.27;;;13.30;99.90;;;;;;4953422;29;20056;-76
2021/09/05 23:10:08;;;;;;;15.50;12.95;;;13.30;99.90;;;;;;4953765;29;20027;-75
2021/09/05 23:12:39;;;;;;;16.25;12.93;;;13.30;99.90;;;;;;4953964;28;20031;-74
2021/09/05 23:15:05;;;;;;;15.30;13.23;;;13.30;99.90;;;;;;4952651;28;20023;-76
2021/09/05 23:17:30;;;;;;;15.52;13.25;;;13.30;99.90;;;;;;4953695;29;20491;-77
2021/09/05 23:19:56;;;;;;;17.67;13.25;;;13.20;99.90;;;;;;4953689;28;20027;-73
2021/09/05 23:22:21;;;;;;;16.13;13.27;;;13.20;99.90;;;;;;4940851;29;20063;-74
2021/09/05 23:24:47;;;;;;;15.75;14.02;;;13.20;99.90;;;;;;4954406;28;20023;-75
2021/09/05 23:27:13;;;;;;;17.13;13.48;;;13.20;99.90;;;;;;4945237;28;20667;-73
2021/09/05 23:29:39;;;;;;;15.40;13.38;;;13.20;99.90;;;;;;4935725;29;20040;-75
2021/09/05 23:32:04;;;;;;;15.77;14.00;;;13.10;99.90;;;;;;4934901;29;20062;-73
2021/09/05 23:34:30;;;;;;;17.05;14.45;;;13.10;99.90;;;;;;4933939;29;20032;-73
2021/09/05 23:36:56;;;;;;;17.70;14.13;;;13.10;99.90;;;;;;4934963;29;20020;-73
2021/09/05 23:39:21;;;;;;;15.77;13.40;;;13.10;99.90;;;;;;4943666;29;20035;-73
2021/09/05 23:41:47;;;;;;;14.77;13.10;;;13.00;99.90;;;;;;4952490;29;20047;-73
2021/09/05 23:44:12;;;;;;;15.98;13.45;;;13.00;99.90;;;;;;4954274;28;20023;-73
2021/09/05 23:46:38;;;;;;;14.90;13.20;;;13.00;99.90;;;;;;4953261;29;20019;-73